createdAt,value
2014-11-15T16:54:05.090Z,3
2014-11-15T16:54:38.356Z,2
2014-11-15T16:56:06.672Z,12
2014-11-15T16:56:24.266Z,12
2014-11-15T16:56:42.485Z,12
2014-11-15T16:57:00.721Z,12
2014-11-15T16:57:18.315Z,12
2014-11-15T16:57:36.565Z,12
2014-11-15T16:57:54.159Z,11
2014-11-15T16:58:11.756Z,11
2014-11-15T16:58:29.990Z,11
2014-11-15T16:58:48.209Z,12
2014-11-15T16:59:06.445Z,12
2014-11-15T16:59:24.679Z,12
2014-11-15T16:59:42.914Z,12
2014-11-15T17:00:01.136Z,11
2014-11-15T17:00:19.370Z,11
2014-11-15T17:00:37.589Z,12
2014-11-15T17:00:55.823Z,11
2014-11-15T17:01:14.059Z,11
2014-11-15T17:01:32.278Z,12
2014-11-15T17:01:50.513Z,12
2014-11-15T17:02:08.749Z,11
2014-11-15T17:02:26.983Z,11
2014-11-15T17:02:45.202Z,11
2014-11-15T17:03:03.436Z,12
2014-11-15T17:03:21.674Z,12
2014-11-15T17:03:39.908Z,11
2014-11-15T17:03:58.143Z,11
2014-11-15T17:04:16.379Z,11
2014-11-15T17:04:34.598Z,11
2014-11-15T17:04:52.832Z,11
2014-11-15T17:05:11.051Z,11
2014-11-15T17:05:29.288Z,11
2014-11-15T17:05:47.523Z,11
2014-11-15T17:06:05.116Z,11
2014-11-15T17:06:22.853Z,11
2014-11-15T17:06:41.071Z,11
2014-11-15T17:06:59.306Z,11
2014-11-15T17:07:17.540Z,11
2014-11-15T17:07:35.777Z,11
2014-11-15T17:07:54.136Z,11
2014-11-15T17:08:12.355Z,11
2014-11-15T17:08:30.593Z,7
2014-11-15T17:08:48.827Z,12
2014-11-15T17:09:07.046Z,11
2014-11-15T17:09:25.281Z,12
2014-11-15T17:09:43.501Z,11
2014-11-15T17:10:01.736Z,11
2014-11-15T17:10:19.970Z,11
2014-11-15T17:10:38.206Z,12
2014-11-15T17:10:56.425Z,10
2014-11-15T17:11:14.519Z,11
2014-11-15T17:11:32.597Z,11
2014-11-15T17:11:50.818Z,11
2014-11-15T17:12:09.052Z,11
2014-11-15T17:12:26.646Z,11
2014-11-15T17:12:44.868Z,11
2014-11-15T17:13:03.102Z,10
2014-11-15T17:13:21.321Z,13
2014-11-15T17:13:39.555Z,14
2014-11-15T17:13:57.793Z,14
2014-11-15T17:14:16.027Z,15
2014-11-15T17:14:34.246Z,14
2014-11-15T17:14:52.482Z,15
2014-11-15T17:15:10.716Z,14
2014-11-15T17:15:28.951Z,15
2014-11-15T17:15:47.185Z,14
2014-11-15T17:16:05.406Z,15
2014-11-15T17:16:23.640Z,15
2014-11-15T17:16:41.875Z,15
2014-11-15T17:17:00.095Z,14
2014-11-15T17:17:18.330Z,15
2014-11-15T17:17:36.549Z,15
2014-11-15T17:17:54.786Z,15
2014-11-15T17:18:12.380Z,14
2014-11-15T17:18:30.614Z,15
2014-11-15T17:18:48.848Z,14
2014-11-15T17:19:07.085Z,15
2014-11-15T17:19:25.304Z,15
2014-11-15T17:19:43.538Z,15
2014-11-15T17:20:01.760Z,14
2014-11-15T17:20:19.994Z,15
2014-11-15T17:20:38.228Z,15
2014-11-15T17:20:55.823Z,15
2014-11-15T17:21:14.042Z,14
2014-11-15T17:21:32.276Z,14
2014-11-15T17:21:50.495Z,14
2014-11-15T17:22:08.732Z,15
2014-11-15T17:22:26.967Z,15
2014-11-15T17:22:45.186Z,15
2014-11-15T17:23:03.422Z,14
2014-11-15T17:23:21.641Z,14
2014-11-15T17:23:39.875Z,14
2014-11-15T17:23:58.096Z,15
2014-11-15T17:24:16.330Z,15
2014-11-15T17:24:34.565Z,15
2014-11-15T17:24:52.799Z,15
2014-11-15T17:25:11.022Z,15
2014-11-15T17:25:29.256Z,15
2014-11-15T17:25:47.490Z,15
2014-11-15T17:26:05.726Z,15
2014-11-15T17:26:23.960Z,15
2014-11-15T17:26:42.179Z,15
2014-11-15T17:27:00.429Z,15
2014-11-15T17:27:18.651Z,15
2014-11-15T17:27:36.869Z,15
2014-11-15T17:27:55.104Z,15
2014-11-15T17:28:13.325Z,15
2014-11-15T17:28:31.559Z,15
2014-11-15T17:28:49.793Z,15
2014-11-15T17:29:08.028Z,15
2014-11-15T17:29:25.624Z,15
2014-11-15T17:29:43.218Z,15
2014-11-15T17:30:01.453Z,15
2014-11-15T17:30:19.673Z,15
2014-11-15T17:30:37.923Z,16
2014-11-15T17:30:56.142Z,15
2014-11-15T17:31:14.361Z,15
2014-11-15T17:31:32.598Z,15
2014-11-15T17:31:50.833Z,15
2014-11-15T17:32:09.051Z,15
2014-11-15T17:32:27.289Z,16
2014-11-15T17:32:45.507Z,15
2014-11-15T17:33:03.742Z,16
2014-11-15T17:33:21.961Z,14
2014-11-15T17:33:40.197Z,15
2014-11-15T17:33:58.416Z,15
2014-11-15T17:34:16.025Z,15
2014-11-15T17:34:33.619Z,14
2014-11-15T17:34:51.980Z,15
2014-11-15T17:35:09.574Z,15
2014-11-15T17:35:27.808Z,15
2014-11-15T17:35:46.171Z,15
2014-11-15T17:36:03.780Z,15
2014-11-15T17:36:22.014Z,15
2014-11-15T17:36:40.235Z,15
2014-11-15T17:36:58.470Z,15
2014-11-15T17:37:16.063Z,15
2014-11-15T17:37:34.298Z,15
2014-11-15T17:37:52.535Z,16
2014-11-15T17:38:10.144Z,16
2014-11-15T17:38:28.363Z,16
2014-11-15T17:38:46.600Z,16
2014-11-15T17:39:04.834Z,16
2014-11-15T17:39:23.053Z,16
2014-11-15T17:39:41.303Z,15
2014-11-15T17:39:58.898Z,16
2014-11-15T17:40:17.133Z,16
2014-11-15T17:40:35.367Z,15
2014-11-15T17:40:53.604Z,15
2014-11-15T17:41:11.854Z,15
2014-11-15T17:41:30.072Z,16
2014-11-15T17:41:48.307Z,15
2014-11-15T17:42:06.528Z,16
2014-11-15T17:42:24.763Z,15
2014-11-15T17:42:42.997Z,15
2014-11-15T17:43:00.593Z,15
2014-11-15T17:43:18.812Z,15
2014-11-15T17:43:37.046Z,15
2014-11-15T17:43:55.439Z,15
2014-11-15T17:44:13.657Z,15
2014-11-15T17:44:31.267Z,15
2014-11-15T17:44:49.501Z,15
2014-11-15T17:45:07.097Z,15
2014-11-15T17:45:25.331Z,15
2014-11-15T17:45:42.925Z,15
2014-11-15T17:46:01.162Z,15
2014-11-15T17:46:19.381Z,15
2014-11-15T17:46:37.616Z,15
2014-11-15T17:46:55.836Z,14
2014-11-15T17:47:14.086Z,15
2014-11-15T17:47:32.305Z,15
2014-11-15T17:47:50.539Z,15
2014-11-15T17:48:08.777Z,15
2014-11-15T17:48:27.011Z,15
2014-11-15T17:48:45.230Z,15
2014-11-15T17:49:03.467Z,15
2014-11-15T17:49:21.702Z,15
2014-11-15T17:49:39.936Z,15
2014-11-15T17:49:58.170Z,15
2014-11-15T17:50:16.407Z,15
2014-11-15T17:50:34.626Z,15
2014-11-15T17:50:52.860Z,15
2014-11-15T17:51:11.081Z,15
2014-11-15T17:51:29.315Z,15
2014-11-15T17:51:47.549Z,15
2014-11-15T17:52:05.784Z,15
2014-11-15T17:52:23.381Z,15
2014-11-15T17:52:40.974Z,14
2014-11-15T17:52:58.568Z,15
2014-11-15T17:53:16.162Z,15
2014-11-15T17:53:33.758Z,16
2014-11-15T17:53:51.992Z,15
2014-11-15T17:54:10.226Z,16
2014-11-15T17:54:27.823Z,15
2014-11-15T17:54:46.182Z,15
2014-11-15T17:55:03.776Z,15
2014-11-15T17:55:22.136Z,16
2014-11-15T17:55:40.372Z,15
2014-11-15T17:55:58.606Z,16
2014-11-15T17:56:16.825Z,15
2014-11-15T17:56:35.062Z,16
2014-11-15T17:56:53.297Z,15
2014-11-15T17:57:10.891Z,15
2014-11-15T18:45:04.936Z,42
2014-11-15T18:45:23.155Z,41
2014-11-15T18:45:41.389Z,40
2014-11-15T18:45:59.628Z,41
2014-11-15T18:46:17.847Z,40
2014-11-15T18:46:36.082Z,40
2014-11-15T18:46:54.304Z,39
2014-11-15T18:47:12.554Z,41
2014-11-15T18:47:30.773Z,39
2014-11-15T18:47:49.007Z,41
2014-11-15T18:48:07.246Z,41
2014-11-15T18:48:25.465Z,39
2014-11-15T18:48:43.699Z,40
2014-11-15T18:49:01.297Z,40
2014-11-15T18:49:19.531Z,40
2014-11-15T18:49:37.750Z,39
2014-11-15T18:49:55.988Z,40
2014-11-15T18:50:14.223Z,39
2014-11-15T18:50:32.457Z,41
2014-11-15T18:50:50.691Z,40
2014-11-15T18:51:08.913Z,41
2014-11-15T18:51:27.147Z,41
2014-11-15T18:51:45.382Z,40
2014-11-15T18:52:03.604Z,40
2014-11-15T18:52:21.838Z,40
2014-11-15T18:52:39.432Z,39
2014-11-15T18:52:57.041Z,39
2014-11-15T18:53:15.262Z,39
2014-11-15T18:53:33.496Z,40
2014-11-15T18:53:51.731Z,40
2014-11-15T18:54:09.968Z,40
2014-11-15T18:54:28.202Z,41
2014-11-15T18:54:46.421Z,39
2014-11-15T18:55:04.655Z,40
2014-11-15T18:55:22.893Z,40
2014-11-15T18:55:40.487Z,39
2014-11-15T18:55:58.721Z,39
2014-11-15T18:56:16.943Z,41
2014-11-15T18:56:35.177Z,40
2014-11-15T18:56:53.411Z,39
2014-11-15T18:57:11.646Z,39
2014-11-15T18:57:29.868Z,40
2014-11-15T18:57:47.477Z,40
2014-11-15T18:58:05.711Z,40
2014-11-15T18:58:23.932Z,40
2014-11-15T18:58:42.182Z,39
2014-11-15T18:59:00.416Z,40
2014-11-15T18:59:18.635Z,41
2014-11-15T18:59:36.888Z,41
2014-11-15T18:59:55.107Z,40
2014-11-15T19:00:13.638Z,39
2014-11-15T19:00:32.437Z,41
2014-11-15T19:00:50.765Z,39
2014-11-15T19:01:09.000Z,40
2014-11-15T19:01:27.234Z,40
2014-11-15T19:01:45.470Z,39
2014-11-15T19:02:03.189Z,40
2014-11-15T19:02:21.564Z,40
2014-11-15T19:02:39.801Z,40
2014-11-15T19:02:58.036Z,39
2014-11-15T19:03:16.270Z,40
2014-11-15T19:03:34.505Z,39
2014-11-15T19:03:52.866Z,39
2014-11-15T19:04:11.100Z,38
2014-11-15T19:04:29.335Z,38
2014-11-15T19:04:47.556Z,40
2014-11-15T19:05:05.791Z,40
2014-11-15T19:05:24.025Z,39
2014-11-15T19:05:42.244Z,39
2014-11-15T19:06:00.480Z,40
2014-11-15T19:06:18.715Z,38
2014-11-15T19:06:36.949Z,38
2014-11-15T19:06:55.202Z,38
2014-11-15T19:07:13.436Z,39
2014-11-15T19:07:31.030Z,40
2014-11-15T19:07:49.265Z,39
2014-11-15T19:08:07.485Z,40
2014-11-15T19:08:25.720Z,40
2014-11-15T19:08:43.954Z,39
2014-11-15T19:09:01.534Z,40
2014-11-15T19:09:19.769Z,39
2014-11-15T19:09:37.987Z,40
2014-11-15T19:09:56.067Z,40
2014-11-15T19:10:14.302Z,40
2014-11-15T19:10:32.536Z,39
2014-11-15T19:10:50.755Z,40
2014-11-15T19:11:08.992Z,39
2014-11-15T19:11:26.586Z,39
2014-11-15T19:11:44.820Z,39
2014-11-15T19:12:03.057Z,40
2014-11-15T19:12:20.651Z,40
2014-11-15T19:12:38.869Z,40
2014-11-15T19:12:57.104Z,38
2014-11-15T19:13:15.340Z,39
2014-11-15T19:13:32.309Z,40
2014-11-15T19:13:50.043Z,39
2014-11-15T19:14:08.278Z,40
2014-11-15T19:14:26.515Z,40
2014-11-15T19:14:44.734Z,39
2014-11-15T19:15:02.968Z,40
2014-11-15T19:15:21.330Z,39
2014-11-15T19:15:39.565Z,40
2014-11-15T19:15:57.815Z,41
2014-11-15T19:16:16.051Z,41
2014-11-15T19:16:34.270Z,41
2014-11-15T19:16:52.645Z,39
2014-11-15T19:17:10.864Z,38
2014-11-15T19:17:29.100Z,40
2014-11-15T19:17:47.350Z,40
2014-11-15T19:18:05.569Z,40
2014-11-15T19:18:23.806Z,39
2014-11-15T19:18:42.041Z,40
2014-11-15T19:19:00.275Z,39
2014-11-15T19:19:18.509Z,40
2014-11-15T19:19:36.730Z,39
2014-11-15T19:19:54.964Z,40
2014-11-15T19:20:13.199Z,40
2014-11-15T19:20:31.421Z,40
2014-11-15T19:20:49.030Z,39
2014-11-15T19:21:07.249Z,39
2014-11-15T19:21:25.483Z,39
2014-11-15T19:21:43.704Z,40
2014-11-15T19:22:01.938Z,39
2014-11-15T19:22:20.173Z,40
2014-11-15T19:22:37.769Z,40
2014-11-15T19:22:56.004Z,40
2014-11-15T19:23:14.238Z,40
2014-11-15T19:23:32.457Z,40
2014-11-15T19:23:50.693Z,39
2014-11-15T19:24:08.287Z,40
2014-11-15T19:24:26.521Z,40
2014-11-15T19:24:44.759Z,39
2014-11-15T19:25:02.993Z,38
2014-11-15T19:25:21.212Z,31
2014-11-15T19:25:39.446Z,11
2014-11-15T19:25:57.683Z,10
2014-11-15T19:26:15.917Z,10
2014-11-15T19:26:34.151Z,11
2014-11-15T19:26:52.389Z,11
2014-11-15T19:27:10.623Z,10
2014-11-15T19:27:28.842Z,11
2014-11-15T19:27:47.076Z,11
2014-11-15T19:28:05.313Z,11
2014-11-15T19:28:23.531Z,11
2014-11-15T19:28:41.781Z,1
2014-11-15T19:29:00.002Z,3
2014-11-15T19:29:18.236Z,3
2014-11-15T19:29:36.455Z,4
2014-11-15T19:29:54.690Z,4
2014-11-15T19:30:12.927Z,4
2014-11-15T19:30:31.161Z,4
2014-11-15T19:30:49.396Z,4
2014-11-15T19:31:07.632Z,3
2014-11-15T19:31:25.866Z,4
2014-11-15T19:31:44.101Z,4
2014-11-15T19:32:02.337Z,4
2014-11-15T19:32:20.556Z,3
2014-11-15T19:32:38.806Z,4
2014-11-15T19:32:57.028Z,3
2014-11-15T19:33:15.262Z,4
2014-11-15T19:33:33.496Z,4
2014-11-15T19:33:51.090Z,3
2014-11-15T19:34:09.327Z,4
2014-11-15T19:34:27.545Z,4
2014-11-15T19:34:45.780Z,4
2014-11-15T19:35:04.016Z,4
2014-11-15T19:35:22.250Z,4
2014-11-15T19:35:40.485Z,4
2014-11-15T19:35:58.704Z,4
2014-11-15T19:36:16.940Z,4
2014-11-15T19:36:35.159Z,4
2014-11-15T19:36:53.393Z,4
2014-11-15T19:37:10.990Z,4
2014-11-15T19:37:28.599Z,4
2014-11-15T19:37:46.818Z,4
2014-11-15T19:38:05.052Z,4
2014-11-15T19:38:23.290Z,4
2014-11-15T19:38:41.508Z,4
2014-11-15T19:38:59.727Z,3
2014-11-15T19:39:17.964Z,4
2014-11-15T19:39:36.198Z,4
2014-11-15T19:39:54.417Z,4
2014-11-15T19:40:12.651Z,4
2014-11-15T19:40:30.247Z,4
2014-11-15T19:40:48.481Z,4
2014-11-15T19:41:06.075Z,4
2014-11-15T19:41:24.312Z,3
2014-11-15T19:41:42.547Z,4
2014-11-15T19:42:00.781Z,4
2014-11-15T19:42:19.015Z,4
2014-11-15T19:42:37.236Z,4
2014-11-15T19:42:55.471Z,4
2014-11-15T19:43:13.689Z,4
2014-11-15T19:43:31.927Z,4
2014-11-15T19:43:50.161Z,4
2014-11-15T19:44:08.380Z,4
2014-11-15T19:44:26.614Z,4
2014-11-15T19:44:44.851Z,4
2014-11-15T19:45:03.069Z,4
2014-11-15T19:45:21.304Z,4
2014-11-15T19:45:39.524Z,4
2014-11-15T19:45:57.759Z,4
2014-11-15T19:46:15.353Z,4
2014-11-15T19:46:33.587Z,4
2014-11-15T19:46:51.810Z,4
2014-11-15T19:47:10.044Z,3
2014-11-15T19:47:28.278Z,4
2014-11-15T19:47:45.873Z,4
2014-11-15T19:48:04.108Z,4
2014-11-15T19:48:22.326Z,4
2014-11-15T19:48:40.561Z,4
2014-11-15T19:48:58.923Z,4
2014-11-15T19:49:17.157Z,4
2014-11-15T19:49:35.376Z,4
2014-11-15T19:49:53.614Z,4
2014-11-15T19:50:11.864Z,4
2014-11-15T19:50:30.067Z,4
2014-11-15T19:50:47.660Z,4
2014-11-15T19:51:05.896Z,4
2014-11-15T19:51:23.490Z,4
2014-11-15T19:51:41.724Z,4
2014-11-15T19:51:59.961Z,4
2014-11-15T19:52:18.196Z,4
2014-11-15T19:52:36.430Z,4
2014-11-15T19:52:54.649Z,4
2014-11-15T19:53:12.870Z,4
2014-11-15T19:53:31.151Z,5
2014-11-15T19:53:49.385Z,4
2014-11-15T19:54:07.623Z,4
2014-11-15T19:54:25.841Z,4
2014-11-15T19:54:44.076Z,4
2014-11-15T19:55:02.328Z,4
2014-11-15T19:55:20.546Z,4
2014-11-15T19:55:37.500Z,4
2014-11-15T19:55:55.718Z,4
2014-11-15T19:56:13.315Z,1
2014-11-15T19:56:31.549Z,1
2014-11-15T19:56:49.784Z,1
2014-11-15T19:57:08.005Z,1
2014-11-15T19:57:26.239Z,0
2014-11-15T19:57:43.833Z,1
2014-11-15T19:58:02.053Z,1
2014-11-15T19:58:20.303Z,1
2014-11-15T19:58:38.522Z,1
2014-11-15T19:58:56.741Z,0
2014-11-15T19:59:14.978Z,1
2014-11-15T19:59:33.213Z,1
2014-11-15T19:59:51.447Z,1
2014-11-15T20:00:09.668Z,1
2014-11-15T20:00:27.902Z,0
2014-11-15T20:00:46.137Z,0
2014-11-15T20:01:04.355Z,0
2014-11-15T20:01:22.593Z,1
2014-11-15T20:01:40.811Z,1
2014-11-15T20:01:59.046Z,0
2014-11-15T20:02:17.267Z,0
2014-11-15T20:02:35.501Z,1
2014-11-15T20:02:53.735Z,1
2014-11-15T20:03:11.954Z,0
2014-11-15T20:03:30.175Z,1
2014-11-15T20:03:47.769Z,0
2014-11-15T20:04:06.003Z,0
2014-11-15T20:04:24.240Z,0
2014-11-15T20:04:42.490Z,0
2014-11-15T20:05:00.693Z,0
2014-11-15T20:05:18.928Z,1
2014-11-15T20:05:37.150Z,0
2014-11-15T20:05:55.384Z,1
2014-11-15T20:06:12.978Z,1
2014-11-15T20:06:31.198Z,1
2014-11-15T20:06:49.433Z,1
2014-11-15T20:07:07.652Z,1
2014-11-15T20:07:25.870Z,0
2014-11-15T20:07:44.108Z,1
2014-11-15T20:08:02.342Z,0
2014-11-15T20:08:20.576Z,1
2014-11-15T20:08:38.171Z,0
2014-11-15T20:08:55.124Z,0
2014-11-15T20:09:13.359Z,1
2014-11-15T20:09:31.577Z,1
2014-11-15T20:09:49.815Z,0
2014-11-15T20:10:08.049Z,1
2014-11-15T20:10:26.268Z,1
2014-11-15T20:10:44.504Z,1
2014-11-15T20:11:02.723Z,1
2014-11-15T20:11:20.957Z,1
2014-11-15T20:11:39.176Z,1
2014-11-15T20:11:57.414Z,1
2014-11-15T20:12:15.648Z,1
2014-11-15T20:12:33.867Z,1
2014-11-15T20:12:52.103Z,0
2014-11-15T20:13:10.337Z,1
2014-11-15T20:13:28.556Z,1
2014-11-15T20:13:46.791Z,1
2014-11-15T20:14:05.012Z,1
2014-11-15T20:14:23.247Z,0
2014-11-15T20:14:41.481Z,4
2014-11-15T20:14:59.717Z,6
2014-11-15T20:15:17.936Z,7
2014-11-15T20:15:36.155Z,8
2014-11-15T20:15:54.389Z,8
2014-11-15T20:16:12.627Z,8
2014-11-15T20:16:30.236Z,8
2014-11-15T20:16:48.470Z,8
2014-11-15T20:17:06.691Z,8
2014-11-15T20:17:24.926Z,7
2014-11-15T20:17:42.519Z,8
2014-11-15T20:18:00.756Z,8
2014-11-15T20:18:18.974Z,8
2014-11-15T20:18:37.209Z,8
2014-11-15T20:18:55.428Z,8
2014-11-15T20:19:13.664Z,8
2014-11-15T20:19:31.883Z,8
2014-11-15T20:19:50.117Z,8
2014-11-15T20:20:07.714Z,8
2014-11-15T20:20:25.933Z,8
2014-11-15T20:20:43.526Z,8
2014-11-15T20:21:01.761Z,8
2014-11-15T20:21:19.997Z,8
2014-11-15T20:21:38.231Z,7
2014-11-15T20:21:56.450Z,8
2014-11-15T20:22:14.688Z,8
2014-11-15T20:22:32.281Z,7
2014-11-15T20:22:49.875Z,7
2014-11-15T20:23:07.484Z,8
2014-11-15T20:23:25.705Z,8
2014-11-15T20:23:43.315Z,9
2014-11-15T20:24:01.533Z,9
2014-11-15T20:24:19.771Z,9
2014-11-15T20:24:38.021Z,9
2014-11-15T20:24:56.239Z,8
2014-11-15T20:25:14.489Z,9
2014-11-15T20:25:32.710Z,9
2014-11-15T20:25:50.304Z,9
2014-11-15T20:26:08.538Z,9
2014-11-15T20:26:26.759Z,9
2014-11-15T20:26:44.978Z,9
2014-11-15T20:27:03.228Z,9
2014-11-15T20:27:21.462Z,9
2014-11-15T20:27:39.700Z,9
2014-11-15T20:27:57.918Z,9
2014-11-15T20:28:16.137Z,9
2014-11-15T20:28:34.359Z,9
2014-11-15T20:28:51.953Z,9
2014-11-15T20:29:10.187Z,9
2014-11-15T20:29:28.406Z,9
2014-11-15T20:29:46.642Z,9
2014-11-15T20:30:04.861Z,9
2014-11-15T20:30:23.080Z,9
2014-11-15T20:30:41.316Z,9
2014-11-15T20:30:58.894Z,9
2014-11-15T20:31:17.128Z,9
2014-11-15T20:31:35.347Z,9
2014-11-15T20:31:53.585Z,9
2014-11-15T20:32:11.803Z,9
2014-11-15T20:32:30.038Z,8
2014-11-15T20:32:48.258Z,9
2014-11-15T20:33:06.493Z,9
2014-11-15T20:33:24.712Z,8
2014-11-15T20:33:42.946Z,9
2014-11-15T20:34:01.168Z,9
2014-11-15T20:34:19.386Z,9
2014-11-15T20:34:37.621Z,9
2014-11-15T20:34:55.842Z,9
2014-11-15T20:35:14.076Z,9
2014-11-15T20:35:31.670Z,9
2014-11-15T20:35:49.904Z,9
2014-11-15T20:36:08.126Z,9
2014-11-15T20:36:26.360Z,8
2014-11-15T20:36:43.938Z,9
2014-11-15T20:37:01.533Z,9
2014-11-15T20:37:19.158Z,9
2014-11-15T20:37:37.361Z,9
2014-11-15T20:37:55.596Z,9
2014-11-15T20:38:13.817Z,9
2014-11-15T20:38:32.036Z,9
2014-11-15T20:38:50.395Z,9
2014-11-15T20:39:08.632Z,9
2014-11-15T20:39:26.851Z,8
2014-11-15T20:39:45.085Z,9
2014-11-15T20:40:03.307Z,8
2014-11-15T20:40:21.525Z,9
2014-11-15T20:40:39.760Z,9
2014-11-15T20:40:57.979Z,9
2014-11-15T20:41:16.199Z,9
2014-11-15T20:41:34.434Z,9
2014-11-15T20:41:52.652Z,9
2014-11-15T20:42:10.889Z,8
2014-11-15T20:42:29.108Z,9
2014-11-15T20:42:47.342Z,9
2014-11-15T20:43:05.564Z,9
2014-11-15T20:43:23.798Z,9
2014-11-15T20:43:42.032Z,9
2014-11-15T20:44:00.251Z,9
2014-11-15T20:44:17.848Z,9
2014-11-15T20:44:35.442Z,8
2014-11-15T20:44:53.676Z,9
2014-11-15T20:45:11.895Z,8
2014-11-15T20:45:30.116Z,9
2014-11-15T20:45:48.350Z,9
2014-11-15T20:46:06.569Z,9
2014-11-15T20:46:24.805Z,9
2014-11-15T20:46:42.399Z,9
2014-11-15T20:46:59.993Z,9
2014-11-15T20:47:18.227Z,9
2014-11-15T20:47:36.449Z,9
2014-11-15T20:47:54.667Z,9
2014-11-15T20:48:12.902Z,9
2014-11-15T20:48:31.138Z,9
2014-11-15T20:48:49.357Z,8
2014-11-15T20:49:07.591Z,9
2014-11-15T20:49:25.812Z,9
2014-11-15T20:49:44.031Z,9
2014-11-15T20:50:02.265Z,9
2014-11-15T20:50:19.843Z,9
2014-11-15T20:50:38.081Z,9
2014-11-15T20:50:56.315Z,9
2014-11-15T20:51:14.549Z,9
2014-11-15T20:51:32.786Z,9
2014-11-15T20:51:51.020Z,9
2014-11-15T20:52:09.255Z,9
2014-11-15T20:52:27.473Z,9
2014-11-15T20:52:45.711Z,9
2014-11-15T20:53:03.929Z,9
2014-11-15T20:53:22.148Z,9
2014-11-15T20:53:40.386Z,9
2014-11-15T20:53:58.745Z,9
2014-11-15T20:54:16.979Z,9
2014-11-15T20:54:35.198Z,9
2014-11-15T20:54:53.419Z,9
2014-11-15T20:55:11.653Z,9
2014-11-15T20:55:29.872Z,9
2014-11-15T20:55:48.108Z,9
2014-11-15T20:56:06.327Z,9
2014-11-15T20:56:23.921Z,8
2014-11-15T20:56:42.140Z,9
2014-11-15T20:57:00.376Z,9
2014-11-15T20:57:18.595Z,9
2014-11-15T20:57:36.845Z,9
2014-11-15T20:57:55.066Z,9
2014-11-15T20:58:13.301Z,9
2014-11-15T20:58:31.520Z,9
2014-11-15T20:58:49.738Z,9
2014-11-15T20:59:07.975Z,8
2014-11-15T20:59:26.193Z,9
2014-11-15T20:59:44.443Z,9
2014-11-15T21:00:02.664Z,8
2014-11-15T21:00:20.883Z,9
2014-11-15T21:00:39.117Z,9
2014-11-15T21:00:56.714Z,9
2014-11-15T21:01:14.933Z,8
2014-11-15T21:01:33.167Z,8
2014-11-15T21:01:51.386Z,8
2014-11-15T21:02:09.623Z,9
2014-11-15T21:02:27.858Z,8
2014-11-15T21:02:46.092Z,9
2014-11-15T21:03:03.671Z,8
2014-11-15T21:03:21.890Z,9
2014-11-15T21:03:40.124Z,8
2014-11-15T21:03:58.346Z,8
2014-11-15T21:04:16.580Z,9
2014-11-15T21:04:34.799Z,9
2014-11-15T21:04:52.409Z,9
2014-11-15T21:05:10.004Z,9
2014-11-15T21:05:28.239Z,9
2014-11-15T21:05:46.457Z,9
2014-11-15T21:06:04.695Z,9
2014-11-15T21:06:22.273Z,9
2014-11-15T21:06:40.507Z,9
2014-11-15T21:06:58.744Z,8
2014-11-15T21:07:16.337Z,8
2014-11-15T21:07:34.556Z,9
2014-11-15T21:07:52.791Z,9
2014-11-15T21:08:11.027Z,9
2014-11-15T21:08:29.246Z,9
2014-11-15T21:08:47.496Z,8
2014-11-15T21:09:05.702Z,8
2014-11-15T21:09:23.936Z,8
2014-11-15T21:09:42.155Z,8
2014-11-15T21:10:00.376Z,9
2014-11-15T21:10:17.969Z,9
2014-11-15T21:10:36.188Z,8
2014-11-15T21:10:54.423Z,8
2014-11-15T21:11:12.643Z,9
2014-11-15T21:11:30.878Z,8
2014-11-15T21:11:49.112Z,9
2014-11-15T21:12:07.334Z,8
2014-11-15T21:12:25.693Z,8
2014-11-15T21:12:43.287Z,8
2014-11-15T21:13:01.523Z,9
2014-11-15T21:13:19.742Z,9
2014-11-15T21:13:37.992Z,8
2014-11-15T21:13:55.555Z,8
2014-11-15T21:14:13.775Z,9
2014-11-15T21:14:32.010Z,8
2014-11-15T21:14:49.603Z,9
2014-11-15T21:15:07.824Z,9
2014-11-15T21:15:26.043Z,9
2014-11-15T21:15:44.277Z,9
2014-11-15T21:16:02.499Z,8
2014-11-15T21:16:20.093Z,9
2014-11-15T21:16:38.312Z,9
2014-11-15T21:16:56.530Z,9
2014-11-15T21:17:14.767Z,8
2014-11-15T21:17:32.360Z,9
2014-11-15T21:17:49.939Z,9
2014-11-15T21:18:08.192Z,9
2014-11-15T21:18:26.426Z,8
2014-11-15T21:18:44.645Z,8
2014-11-15T21:19:02.240Z,9
2014-11-15T21:19:20.459Z,9
2014-11-15T21:19:38.694Z,9
2014-11-15T21:19:56.914Z,8
2014-11-15T21:20:15.133Z,9
2014-11-15T21:20:33.367Z,9
2014-11-15T21:20:50.961Z,8
2014-11-15T21:21:09.182Z,9
2014-11-15T21:21:27.401Z,9
2014-11-15T21:21:45.619Z,8
2014-11-15T21:22:03.216Z,8
2014-11-15T21:22:20.810Z,9
2014-11-15T21:22:39.060Z,9
2014-11-15T21:22:56.794Z,8
2014-11-15T21:23:15.031Z,9
2014-11-15T21:23:32.624Z,8
2014-11-15T21:23:50.218Z,9
2014-11-15T21:24:08.439Z,8
2014-11-15T21:24:26.658Z,9
2014-11-15T21:24:44.892Z,8
2014-11-15T21:25:03.114Z,9
2014-11-15T21:25:21.348Z,9
2014-11-15T21:25:39.583Z,9
2014-11-15T21:25:57.803Z,9
2014-11-15T21:26:16.022Z,9
2014-11-15T21:26:34.256Z,8
2014-11-15T21:26:52.475Z,9
2014-11-15T21:27:10.712Z,9
2014-11-15T21:27:28.930Z,9
2014-11-15T21:27:47.165Z,9
2014-11-15T21:28:05.386Z,9
2014-11-15T21:28:23.621Z,8
2014-11-15T21:28:41.965Z,9
2014-11-15T21:29:00.200Z,8
2014-11-15T21:29:18.434Z,8
2014-11-15T21:29:36.653Z,8
2014-11-15T21:29:54.872Z,9
2014-11-15T21:30:13.109Z,9
2014-11-15T21:30:31.328Z,9
2014-11-15T21:30:49.562Z,9
2014-11-15T21:31:07.784Z,8
2014-11-15T21:31:26.003Z,9
2014-11-15T21:31:44.237Z,9
2014-11-15T21:32:02.458Z,9
2014-11-15T21:32:20.692Z,9
2014-11-15T21:32:38.911Z,8
2014-11-15T21:32:57.132Z,9
2014-11-15T21:33:14.726Z,9
2014-11-15T21:33:32.960Z,9
2014-11-15T21:33:51.179Z,8
2014-11-15T21:34:08.774Z,9
2014-11-15T21:34:26.993Z,9
2014-11-15T21:34:44.712Z,8
2014-11-15T21:35:02.948Z,9
2014-11-15T21:35:21.183Z,9
2014-11-15T21:35:39.542Z,8
2014-11-15T21:35:57.778Z,9
2014-11-15T21:36:15.997Z,8
2014-11-15T21:36:34.216Z,9
2014-11-15T21:36:52.450Z,9
2014-11-15T21:37:10.672Z,8
2014-11-15T21:37:28.891Z,9
2014-11-15T21:37:47.110Z,9
2014-11-15T21:38:05.346Z,8
2014-11-15T21:38:23.565Z,9
2014-11-15T21:38:41.799Z,8
2014-11-15T21:39:00.021Z,9
2014-11-15T21:39:18.255Z,9
2014-11-15T21:39:36.490Z,8
2014-11-15T21:39:54.708Z,9
2014-11-15T21:40:12.304Z,8
2014-11-15T21:40:30.523Z,8
2014-11-15T21:40:48.757Z,9
2014-11-15T21:41:06.978Z,9
2014-11-15T21:41:25.212Z,8
2014-11-15T21:41:42.806Z,9
2014-11-15T21:42:01.043Z,9
2014-11-15T21:42:19.278Z,8
2014-11-15T21:42:37.497Z,9
2014-11-15T21:42:55.731Z,8
2014-11-15T21:43:13.952Z,9
2014-11-15T21:43:32.186Z,9
2014-11-15T21:43:50.420Z,9
2014-11-15T21:44:08.657Z,9
2014-11-15T21:44:26.876Z,9
2014-11-15T21:44:45.094Z,8
2014-11-15T21:45:03.315Z,8
2014-11-15T21:45:21.549Z,8
2014-11-15T21:45:39.768Z,9
2014-11-15T21:45:57.990Z,9
2014-11-15T21:46:16.209Z,8
2014-11-15T21:46:34.443Z,9
2014-11-15T21:46:52.037Z,8
2014-11-15T21:47:10.258Z,9
2014-11-15T21:47:28.476Z,9
2014-11-15T21:47:46.086Z,8
2014-11-15T21:48:03.681Z,9
2014-11-15T21:48:21.900Z,9
2014-11-15T21:48:40.119Z,9
2014-11-15T21:48:58.481Z,9
2014-11-15T21:49:16.700Z,9
2014-11-15T21:49:34.294Z,9
2014-11-15T21:49:52.513Z,9
2014-11-15T21:50:10.749Z,9
2014-11-15T21:50:28.968Z,8
2014-11-15T21:50:47.186Z,9
2014-11-15T21:51:05.424Z,8
2014-11-15T21:51:23.643Z,9
2014-11-15T21:51:41.861Z,9
2014-11-15T21:52:00.097Z,8
2014-11-15T21:52:18.315Z,9
2014-11-15T21:52:36.550Z,9
2014-11-15T21:52:54.769Z,8
2014-11-15T21:53:12.989Z,9
2014-11-15T21:53:31.224Z,9
2014-11-15T21:53:49.442Z,9
2014-11-15T21:54:07.039Z,8
2014-11-15T21:54:24.633Z,8
2014-11-15T21:54:42.852Z,9
2014-11-15T21:55:01.073Z,9
2014-11-15T21:55:18.667Z,9
2014-11-15T21:55:36.886Z,8
2014-11-15T21:55:55.120Z,9
2014-11-15T21:56:13.341Z,9
2014-11-15T21:56:30.935Z,9
2014-11-15T21:56:49.154Z,9
2014-11-15T21:57:07.390Z,9
2014-11-15T21:57:25.609Z,9
2014-11-15T21:57:43.827Z,9
2014-11-15T21:58:02.048Z,9
2014-11-15T21:58:20.267Z,9
2014-11-15T21:58:38.501Z,9
2014-11-15T21:58:56.720Z,8
2014-11-15T21:59:14.942Z,9
2014-11-15T21:59:33.161Z,9
2014-11-15T21:59:50.754Z,9
2014-11-15T22:00:08.975Z,9
2014-11-15T22:00:27.209Z,9
2014-11-15T22:00:45.428Z,8
2014-11-15T22:01:03.649Z,8
2014-11-15T22:01:21.868Z,9
2014-11-15T22:01:40.102Z,9
2014-11-15T22:01:57.699Z,9
2014-11-15T22:02:15.918Z,9
2014-11-15T22:02:34.136Z,9
2014-11-15T22:02:52.371Z,9
2014-11-15T22:03:10.591Z,9
2014-11-15T22:03:28.826Z,9
2014-11-15T22:03:47.045Z,9
2014-11-15T22:04:05.297Z,9
2014-11-15T22:04:23.515Z,8
2014-11-15T22:04:41.734Z,9
2014-11-15T22:04:59.971Z,9
2014-11-15T22:05:18.190Z,9
2014-11-15T22:05:36.425Z,9
2014-11-15T22:05:54.643Z,9
2014-11-15T22:06:12.880Z,9
2014-11-15T22:06:31.239Z,9
2014-11-15T22:06:49.458Z,7
2014-11-15T22:07:07.680Z,6
2014-11-15T22:07:25.273Z,6